createdAt,value
2023-01-01T00:00:32.105Z,8.00
2023-01-01T00:01:40.051Z,8.00
2023-01-01T00:02:43.077Z,8.00
2023-01-01T00:03:49.648Z,7.90
2023-01-01T00:04:52.610Z,7.90
2023-01-01T00:05:54.614Z,7.90
2023-01-01T00:06:57.631Z,7.90
2023-01-01T00:08:04.649Z,7.90
2023-01-01T00:09:25.956Z,7.90
2023-01-01T00:10:31.773Z,7.90
2023-01-01T00:11:33.687Z,7.90
2023-01-01T00:12:36.664Z,7.90
2023-01-01T00:13:41.368Z,7.90
2023-01-01T00:14:44.364Z,8.00
2023-01-01T00:15:48.693Z,7.90
2023-01-01T00:16:50.843Z,7.90
2023-01-01T00:17:54.446Z,7.90
2023-01-01T00:18:56.427Z,7.90
2023-01-01T00:19:59.361Z,8.00
2023-01-01T00:21:05.906Z,7.90
2023-01-01T00:22:43.769Z,7.90
2023-01-01T00:23:32.106Z,7.90
2023-01-01T00:24:34.140Z,7.90
2023-01-01T00:25:37.191Z,7.90
2023-01-01T00:26:39.205Z,7.90
2023-01-01T00:27:42.447Z,7.90
2023-01-01T00:28:45.874Z,7.90
2023-01-01T00:29:49.031Z,7.90
2023-01-01T00:30:52.664Z,7.80
2023-01-01T00:31:55.634Z,7.80
2023-01-01T00:32:58.630Z,7.80
2023-01-01T00:34:01.584Z,7.80
2023-01-01T00:35:03.803Z,7.80
2023-01-01T00:36:10.922Z,7.80
2023-01-01T00:37:14.910Z,7.80
2023-01-01T00:38:17.823Z,7.80
2023-01-01T00:39:19.790Z,7.90
2023-01-01T00:40:23.316Z,7.90
2023-01-01T00:41:25.255Z,7.90
2023-01-01T00:42:28.223Z,7.80
2023-01-01T00:43:30.290Z,7.80
2023-01-01T00:44:33.265Z,7.80
2023-01-01T00:45:36.263Z,7.80
2023-01-01T00:46:39.594Z,7.80
2023-01-01T00:47:42.542Z,7.80
2023-01-01T00:48:44.505Z,7.80
2023-01-01T00:49:47.495Z,7.70
2023-01-01T00:50:50.059Z,7.80
2023-01-01T00:51:52.992Z,7.80
2023-01-01T00:52:55.925Z,7.90
2023-01-01T00:53:58.938Z,7.70
2023-01-01T00:55:00.878Z,7.60
2023-01-01T00:56:05.766Z,7.60
2023-01-01T00:57:08.665Z,7.70
2023-01-01T00:58:12.224Z,7.70
2023-01-01T00:59:14.555Z,7.70
2023-01-01T01:00:18.542Z,7.70
2023-01-01T01:01:20.623Z,7.70
2023-01-01T01:02:25.125Z,8.20
2023-01-01T01:03:30.626Z,7.80
2023-01-01T01:04:33.734Z,7.80
2023-01-01T01:05:39.901Z,7.70
2023-01-01T01:06:42.878Z,7.80
2023-01-01T01:07:45.096Z,7.70
2023-01-01T01:08:48.602Z,7.70
2023-01-01T01:09:50.554Z,7.80
2023-01-01T01:10:53.956Z,7.80
2023-01-01T01:12:17.427Z,7.80
2023-01-01T01:13:18.803Z,7.80
2023-01-01T01:14:20.755Z,7.70
2023-01-01T01:15:23.857Z,7.70
2023-01-01T01:16:29.041Z,7.60
2023-01-01T01:17:32.744Z,7.60
2023-01-01T01:18:35.684Z,7.60
2023-01-01T01:19:38.653Z,7.60
2023-01-01T01:20:40.670Z,7.70
2023-01-01T01:21:43.693Z,7.70
2023-01-01T01:22:46.589Z,7.70
2023-01-01T01:23:48.827Z,7.70
2023-01-01T01:24:52.098Z,7.70
2023-01-01T01:25:54.010Z,7.70
2023-01-01T01:26:56.952Z,7.80
2023-01-01T01:28:00.280Z,7.80
2023-01-01T01:29:02.500Z,7.80
2023-01-01T01:30:06.388Z,7.70
2023-01-01T01:31:09.129Z,7.70
2023-01-01T01:32:12.385Z,7.70
2023-01-01T01:33:26.924Z,7.70
2023-01-01T01:34:29.843Z,7.80
2023-01-01T01:35:33.044Z,7.80
2023-01-01T01:36:36.000Z,7.80
2023-01-01T01:37:37.968Z,7.70
2023-01-01T01:38:41.479Z,7.70
2023-01-01T01:39:47.801Z,7.70
2023-01-01T01:40:52.476Z,7.80
2023-01-01T01:41:55.433Z,7.70
2023-01-01T01:42:57.425Z,7.70
2023-01-01T01:44:01.957Z,7.60
2023-01-01T01:45:07.004Z,7.60
2023-01-01T01:46:14.176Z,7.50
2023-01-01T01:47:20.764Z,7.60
2023-01-01T01:48:26.069Z,7.50
2023-01-01T01:49:32.074Z,7.50
2023-01-01T01:50:38.802Z,7.50
2023-01-01T01:51:41.751Z,7.50
2023-01-01T01:53:00.658Z,7.50
2023-01-01T01:54:06.346Z,7.60
2023-01-01T01:55:10.650Z,7.60
2023-01-01T01:56:16.537Z,7.70
2023-01-01T01:57:18.847Z,7.70
2023-01-01T01:58:22.152Z,7.70
2023-01-01T01:59:27.416Z,7.60
2023-01-01T02:00:30.558Z,7.60
2023-01-01T02:01:32.595Z,7.60
2023-01-01T02:02:39.395Z,7.60
2023-01-01T02:03:46.466Z,7.60
2023-01-01T02:04:50.250Z,7.60
2023-01-01T02:05:53.091Z,7.60
2023-01-01T02:06:56.630Z,7.60
2023-01-01T02:08:00.788Z,7.50
2023-01-01T02:09:06.505Z,7.50
2023-01-01T02:10:09.149Z,7.50
2023-01-01T02:11:12.908Z,7.50
2023-01-01T02:12:17.189Z,7.50
2023-01-01T02:13:20.643Z,7.40
2023-01-01T02:14:22.651Z,7.40
2023-01-01T02:15:30.991Z,7.40
2023-01-01T02:16:37.736Z,7.40
2023-01-01T02:17:46.980Z,7.50
2023-01-01T02:18:55.539Z,7.50
2023-01-01T02:20:13.272Z,7.50
2023-01-01T02:21:20.199Z,7.50
2023-01-01T02:22:34.050Z,7.60
2023-01-01T02:23:56.115Z,7.60
2023-01-01T02:25:11.165Z,7.50
2023-01-01T02:27:01.967Z,7.50
2023-01-01T02:28:13.269Z,7.50
2023-01-01T02:29:31.389Z,7.50
2023-01-01T02:30:36.108Z,7.50
2023-01-01T02:31:44.364Z,7.50
2023-01-01T02:32:50.622Z,7.60
2023-01-01T02:33:56.833Z,7.50
2023-01-01T02:35:23.872Z,7.60
2023-01-01T02:36:28.277Z,7.50
2023-01-01T02:37:31.874Z,7.50
2023-01-01T02:38:37.041Z,7.50
2023-01-01T02:39:45.873Z,7.60
2023-01-01T02:40:50.369Z,7.50
2023-01-01T02:41:56.059Z,7.40
2023-01-01T02:43:00.115Z,7.40
2023-01-01T02:45:08.524Z,7.40
2023-01-01T02:47:18.075Z,7.50
2023-01-01T02:48:47.062Z,7.40
2023-01-01T02:49:57.530Z,7.40
2023-01-01T02:51:05.919Z,7.50
2023-01-01T02:52:13.415Z,7.50
2023-01-01T02:53:25.424Z,7.50
2023-01-01T02:54:33.837Z,7.50
2023-01-01T02:55:49.011Z,7.50
2023-01-01T02:56:56.516Z,7.50
2023-01-01T02:58:25.182Z,7.40
2023-01-01T02:59:52.000Z,7.40
2023-01-01T03:01:01.286Z,7.40
2023-01-01T03:02:13.704Z,7.50
2023-01-01T03:03:26.059Z,7.50
2023-01-01T03:04:43.314Z,7.50
2023-01-01T03:06:12.301Z,7.50
2023-01-01T03:07:24.803Z,7.50
2023-01-01T03:08:35.579Z,7.40
2023-01-01T03:09:44.773Z,7.30
2023-01-01T03:10:57.798Z,7.30
2023-01-01T03:12:07.430Z,7.30
2023-01-01T03:13:14.950Z,7.30
2023-01-01T03:14:25.341Z,7.30
2023-01-01T03:15:36.550Z,7.30
2023-01-01T03:16:43.145Z,7.30
2023-01-01T03:17:51.896Z,7.20
2023-01-01T03:19:11.032Z,7.20
2023-01-01T03:20:18.664Z,7.20
2023-01-01T03:21:22.960Z,7.10
2023-01-01T03:22:31.678Z,7.10
2023-01-01T03:23:46.058Z,7.10
2023-01-01T03:24:55.539Z,7.20
2023-01-01T03:26:01.621Z,7.20
2023-01-01T03:27:08.978Z,7.20
2023-01-01T03:28:14.160Z,7.20
2023-01-01T03:29:18.370Z,7.20
2023-01-01T03:30:21.690Z,7.30
2023-01-01T03:31:27.423Z,7.30
2023-01-01T03:32:50.415Z,7.30
2023-01-01T03:33:57.847Z,7.30
2023-01-01T03:34:59.956Z,7.30
2023-01-01T03:36:07.909Z,7.40
2023-01-01T03:37:15.955Z,7.40
2023-01-01T03:38:23.809Z,7.40
2023-01-01T03:39:30.598Z,7.40
2023-01-01T03:40:38.037Z,7.40
2023-01-01T03:41:44.283Z,7.40
2023-01-01T03:42:52.643Z,7.40
2023-01-01T03:44:04.157Z,7.40
2023-01-01T03:45:13.594Z,7.30
2023-01-01T03:46:19.471Z,7.40
2023-01-01T03:47:22.535Z,7.40
2023-01-01T03:48:25.826Z,7.40
2023-01-01T03:49:31.471Z,7.40
2023-01-01T03:50:45.174Z,7.30
2023-01-01T03:52:06.022Z,7.30
2023-01-01T03:53:14.139Z,7.40
2023-01-01T03:54:24.893Z,7.40
2023-01-01T03:55:33.721Z,7.40
2023-01-01T03:56:41.606Z,7.50
2023-01-01T03:57:51.288Z,7.50
2023-01-01T03:59:00.189Z,7.50
2023-01-01T04:00:08.820Z,7.40
2023-01-01T04:01:16.293Z,7.40
2023-01-01T04:02:21.231Z,7.40
2023-01-01T04:03:27.429Z,7.40
2023-01-01T04:04:30.846Z,7.40
2023-01-01T04:05:37.050Z,7.40
2023-01-01T04:06:40.062Z,7.40
2023-01-01T04:08:44.684Z,7.40
2023-01-01T04:09:50.447Z,7.40
2023-01-01T04:10:57.936Z,7.40
2023-01-01T04:12:04.236Z,7.50
2023-01-01T04:13:07.862Z,7.60
2023-01-01T04:14:09.814Z,7.60
2023-01-01T04:15:12.797Z,7.50
2023-01-01T04:16:15.232Z,7.50
2023-01-01T04:17:18.479Z,7.40
2023-01-01T04:18:20.467Z,7.30
2023-01-01T04:19:25.104Z,7.30
2023-01-01T04:20:27.149Z,7.30
2023-01-01T04:21:30.389Z,7.20
2023-01-01T04:22:33.301Z,7.20
2023-01-01T04:23:35.202Z,7.20
2023-01-01T04:24:38.140Z,7.30
2023-01-01T04:25:40.066Z,7.30
2023-01-01T04:26:43.019Z,7.30
2023-01-01T04:27:45.044Z,7.30
2023-01-01T04:28:47.999Z,7.30
2023-01-01T04:29:51.249Z,7.30
2023-01-01T04:31:55.176Z,7.30
2023-01-01T04:32:57.116Z,7.30
2023-01-01T04:34:00.108Z,7.30
2023-01-01T04:35:03.797Z,7.30
2023-01-01T04:36:08.299Z,7.30
2023-01-01T04:37:13.401Z,7.30
2023-01-01T04:38:15.694Z,7.30
2023-01-01T04:39:18.698Z,7.30
2023-01-01T04:40:21.642Z,7.40
2023-01-01T04:41:23.611Z,7.40
2023-01-01T04:42:26.959Z,7.40
2023-01-01T04:43:30.003Z,7.30
2023-01-01T04:44:32.963Z,7.30
2023-01-01T04:45:35.007Z,7.30
2023-01-01T04:46:37.992Z,7.30
2023-01-01T04:47:39.987Z,7.20
2023-01-01T04:48:43.071Z,7.20
2023-01-01T04:49:45.056Z,7.20
2023-01-01T04:50:55.760Z,7.20
2023-01-01T04:51:57.718Z,7.20
2023-01-01T04:53:00.676Z,7.20
2023-01-01T04:54:04.618Z,7.20
2023-01-01T04:55:07.383Z,7.20
2023-01-01T04:56:12.243Z,7.20
2023-01-01T04:57:15.241Z,7.10
2023-01-01T04:58:17.231Z,7.20
2023-01-01T04:59:20.224Z,7.10
2023-01-01T05:00:23.107Z,7.10
2023-01-01T05:01:28.061Z,7.10
2023-01-01T05:02:30.208Z,7.10
2023-01-01T05:03:33.917Z,7.10
2023-01-01T05:04:36.086Z,7.10
2023-01-01T05:05:39.033Z,7.10
2023-01-01T05:06:42.482Z,7.10
2023-01-01T05:07:45.598Z,7.10
2023-01-01T05:08:50.478Z,7.00
2023-01-01T05:09:53.442Z,7.00
2023-01-01T05:11:00.118Z,7.10
2023-01-01T05:12:03.037Z,7.10
2023-01-01T05:13:08.119Z,7.10
2023-01-01T05:14:11.156Z,7.10
2023-01-01T05:15:13.157Z,7.10
2023-01-01T05:16:18.082Z,7.10
2023-01-01T05:17:20.064Z,7.00
2023-01-01T05:18:23.253Z,7.00
2023-01-01T05:19:26.202Z,6.90
2023-01-01T05:20:28.120Z,7.00
2023-01-01T05:21:32.976Z,6.90
2023-01-01T05:22:36.520Z,7.00
2023-01-01T05:23:39.665Z,6.90
2023-01-01T05:24:41.627Z,6.90
2023-01-01T05:25:44.619Z,6.90
2023-01-01T05:26:47.912Z,6.80
2023-01-01T05:27:49.841Z,6.80
2023-01-01T05:28:52.873Z,6.70
2023-01-01T05:29:54.848Z,6.80
2023-01-01T05:30:57.719Z,6.80
2023-01-01T05:32:00.656Z,6.80
2023-01-01T05:33:02.616Z,6.80
2023-01-01T05:35:07.894Z,6.80
2023-01-01T05:36:15.906Z,6.80
2023-01-01T05:37:17.824Z,6.80
2023-01-01T05:38:22.076Z,6.80
2023-01-01T05:39:25.019Z,6.80
2023-01-01T05:40:27.101Z,6.90
2023-01-01T05:41:31.117Z,6.80
2023-01-01T05:42:33.651Z,6.80
2023-01-01T05:43:36.971Z,6.90
2023-01-01T05:44:38.892Z,6.90
2023-01-01T05:45:41.855Z,7.00
2023-01-01T05:46:44.773Z,6.90
2023-01-01T05:47:46.764Z,6.90
2023-01-01T05:48:50.536Z,6.90
2023-01-01T05:49:52.921Z,7.00
2023-01-01T05:50:55.931Z,7.00
2023-01-01T05:51:57.862Z,6.90
2023-01-01T05:53:00.757Z,6.90
2023-01-01T05:54:04.398Z,6.90
2023-01-01T05:55:08.172Z,6.90
2023-01-01T05:56:12.240Z,6.90
2023-01-01T05:57:15.180Z,6.80
2023-01-01T05:58:17.149Z,6.90
2023-01-01T05:59:20.051Z,6.80
2023-01-01T06:00:22.132Z,6.70
2023-01-01T06:01:26.848Z,6.70
2023-01-01T06:02:31.703Z,6.60
2023-01-01T06:03:34.685Z,6.50
2023-01-01T06:04:37.755Z,6.50
2023-01-01T06:05:39.774Z,6.50
2023-01-01T06:06:42.761Z,6.60
2023-01-01T06:07:48.331Z,6.70
2023-01-01T06:08:52.791Z,6.80
2023-01-01T06:09:56.219Z,6.80
2023-01-01T06:11:00.926Z,6.90
2023-01-01T06:12:03.891Z,6.80
2023-01-01T06:13:12.800Z,6.80
2023-01-01T06:14:16.195Z,6.90
2023-01-01T06:15:18.445Z,6.90
2023-01-01T06:16:21.565Z,6.80
2023-01-01T06:17:23.653Z,6.90
2023-01-01T06:18:27.262Z,6.90
2023-01-01T06:19:29.249Z,6.80
2023-01-01T06:20:32.215Z,6.80
2023-01-01T06:21:35.186Z,6.80
2023-01-01T06:22:37.536Z,6.80
2023-01-01T06:23:40.797Z,6.80
2023-01-01T06:24:43.121Z,6.80
2023-01-01T06:25:47.751Z,6.90
2023-01-01T06:26:51.654Z,7.00
2023-01-01T06:27:53.590Z,6.90
2023-01-01T06:28:57.093Z,6.90
2023-01-01T06:29:59.027Z,6.90
2023-01-01T06:31:02.669Z,6.90
2023-01-01T06:32:06.258Z,6.90
2023-01-01T06:33:08.207Z,6.90
2023-01-01T06:34:11.110Z,6.90
2023-01-01T06:35:13.090Z,7.00
2023-01-01T06:36:18.023Z,6.90
2023-01-01T06:37:21.065Z,6.90
2023-01-01T06:38:23.086Z,6.90
2023-01-01T06:39:26.035Z,6.90
2023-01-01T06:40:28.993Z,6.80
2023-01-01T06:41:32.322Z,6.90
2023-01-01T06:42:35.276Z,6.90
2023-01-01T06:43:37.506Z,6.90
2023-01-01T06:44:40.440Z,6.90
2023-01-01T06:45:42.376Z,6.90
2023-01-01T06:46:45.423Z,6.90
2023-01-01T06:47:47.402Z,6.80
2023-01-01T06:48:51.615Z,6.80
2023-01-01T06:49:54.617Z,6.70
2023-01-01T06:50:56.555Z,6.70
2023-01-01T06:51:59.982Z,6.70
2023-01-01T06:53:01.952Z,6.70
2023-01-01T06:54:06.050Z,6.60
2023-01-01T06:55:08.834Z,6.70
2023-01-01T06:56:12.405Z,6.60
2023-01-01T06:57:16.039Z,6.70
2023-01-01T06:58:18.972Z,6.80
2023-01-01T06:59:20.952Z,6.80
2023-01-01T07:00:23.843Z,6.70
2023-01-01T07:01:28.160Z,6.70
2023-01-01T07:02:31.418Z,6.70
2023-01-01T07:03:33.718Z,6.60
2023-01-01T07:04:36.690Z,6.60
2023-01-01T07:05:38.639Z,6.50
2023-01-01T07:06:41.613Z,6.50
2023-01-01T07:07:43.569Z,6.60
2023-01-01T07:08:46.501Z,6.60
2023-01-01T07:09:48.450Z,6.70
2023-01-01T07:10:51.472Z,6.60
2023-01-01T07:11:54.439Z,6.70
2023-01-01T07:12:57.727Z,6.70
2023-01-01T07:14:00.619Z,6.70
2023-01-01T07:15:02.542Z,6.70
2023-01-01T07:16:12.308Z,6.70
2023-01-01T07:17:16.209Z,6.70
2023-01-01T07:18:18.304Z,6.80
2023-01-01T07:19:21.232Z,6.90
2023-01-01T07:20:23.651Z,6.80
2023-01-01T07:21:30.659Z,6.80
2023-01-01T07:22:32.655Z,6.90
2023-01-01T07:23:36.640Z,6.90
2023-01-01T07:24:39.656Z,6.80
2023-01-01T07:25:42.771Z,6.80
2023-01-01T07:26:46.628Z,6.70
2023-01-01T07:27:48.620Z,6.80
2023-01-01T07:28:53.436Z,6.70
2023-01-01T07:29:55.370Z,6.80
2023-01-01T07:30:58.380Z,6.70
2023-01-01T07:32:01.352Z,6.70
2023-01-01T07:33:03.403Z,5.90
2023-01-01T07:34:06.930Z,5.80
2023-01-01T07:35:09.567Z,6.00
2023-01-01T07:36:12.497Z,6.10
2023-01-01T07:37:14.419Z,6.30
2023-01-01T07:38:17.683Z,6.50
2023-01-01T07:39:19.638Z,6.60
2023-01-01T07:40:22.739Z,6.50
2023-01-01T07:41:24.755Z,6.70
2023-01-01T07:42:27.699Z,6.70
2023-01-01T07:43:29.610Z,6.60
2023-01-01T07:44:34.012Z,6.70
2023-01-01T07:45:36.357Z,6.70
2023-01-01T07:46:39.418Z,6.70
2023-01-01T07:47:41.464Z,6.70
2023-01-01T07:48:44.394Z,6.70
2023-01-01T07:49:46.568Z,6.60
2023-01-01T07:50:49.508Z,6.60
2023-01-01T07:51:52.484Z,6.70
2023-01-01T07:52:54.509Z,6.80
2023-01-01T07:54:03.963Z,6.80
2023-01-01T07:55:11.846Z,6.80
2023-01-01T07:56:14.760Z,6.90
2023-01-01T07:57:17.728Z,6.90
2023-01-01T07:58:19.631Z,6.90
2023-01-01T07:59:22.598Z,6.90
2023-01-01T08:00:26.260Z,6.80
2023-01-01T08:01:29.305Z,6.90
2023-01-01T08:02:31.432Z,6.90
2023-01-01T08:03:34.559Z,6.90
2023-01-01T08:04:37.631Z,6.90
2023-01-01T08:05:39.558Z,7.00
2023-01-01T08:06:42.512Z,7.00
2023-01-01T08:07:47.053Z,7.10
2023-01-01T08:08:50.120Z,7.20
2023-01-01T08:09:53.080Z,7.10
2023-01-01T08:11:03.812Z,7.00
2023-01-01T08:12:07.519Z,7.00
2023-01-01T08:13:10.550Z,7.00
2023-01-01T08:14:13.799Z,6.90
2023-01-01T08:15:16.182Z,6.90
2023-01-01T08:16:20.682Z,6.90
2023-01-01T08:17:22.695Z,6.90
2023-01-01T08:18:25.721Z,7.00
2023-01-01T08:19:28.671Z,6.90
2023-01-01T08:20:31.969Z,6.90
2023-01-01T08:21:34.926Z,6.90
2023-01-01T08:22:36.999Z,7.10
2023-01-01T08:23:39.947Z,7.10
2023-01-01T08:24:42.212Z,7.00
2023-01-01T08:25:45.135Z,7.00
2023-01-01T08:26:51.175Z,7.10
2023-01-01T08:27:53.111Z,7.10
2023-01-01T08:29:00.213Z,7.00
2023-01-01T08:30:03.255Z,7.00
2023-01-01T08:31:06.436Z,7.00
2023-01-01T08:32:10.365Z,7.00
2023-01-01T08:33:13.306Z,7.00
2023-01-01T08:34:16.214Z,7.10
2023-01-01T08:35:18.350Z,7.00
2023-01-01T08:36:21.892Z,7.10
2023-01-01T08:37:25.327Z,7.10
2023-01-01T08:38:27.260Z,7.10
2023-01-01T08:39:30.184Z,7.10
2023-01-01T08:40:33.154Z,7.10
2023-01-01T08:41:35.346Z,7.00
2023-01-01T08:42:38.254Z,7.10
2023-01-01T08:43:41.168Z,7.10
2023-01-01T08:44:44.083Z,7.10
2023-01-01T08:45:47.157Z,7.20
2023-01-01T08:46:50.194Z,7.10
2023-01-01T08:47:53.481Z,7.10
2023-01-01T08:48:56.441Z,7.20
2023-01-01T08:49:58.384Z,7.10
2023-01-01T08:51:02.270Z,7.20
2023-01-01T08:52:04.534Z,7.20
2023-01-01T08:53:07.536Z,7.30
2023-01-01T08:54:09.693Z,7.20
2023-01-01T08:55:12.612Z,7.30
2023-01-01T08:56:16.271Z,7.30
2023-01-01T08:57:19.244Z,7.20
2023-01-01T08:58:21.207Z,7.30
2023-01-01T08:59:24.203Z,7.30
2023-01-01T09:00:26.182Z,7.30
2023-01-01T09:01:29.351Z,7.40
2023-01-01T09:02:32.908Z,7.50
2023-01-01T09:03:36.472Z,7.50
2023-01-01T09:04:39.454Z,7.50
2023-01-01T09:05:45.656Z,7.60
2023-01-01T09:06:47.910Z,7.60
2023-01-01T09:07:50.841Z,7.60
2023-01-01T09:08:53.836Z,7.60
2023-01-01T09:09:56.810Z,7.60
2023-01-01T09:10:59.826Z,7.70
2023-01-01T09:12:06.374Z,7.70
2023-01-01T09:13:09.572Z,7.60
2023-01-01T09:14:12.543Z,7.60
2023-01-01T09:15:17.230Z,7.60
2023-01-01T09:16:20.732Z,7.70
2023-01-01T09:17:22.748Z,7.70
2023-01-01T09:18:25.914Z,7.70
2023-01-01T09:19:30.280Z,7.70
2023-01-01T09:20:33.245Z,7.70
2023-01-01T09:21:35.335Z,7.70
2023-01-01T09:22:38.462Z,7.80
2023-01-01T09:23:40.403Z,7.80
2023-01-01T09:24:43.531Z,7.80
2023-01-01T09:25:45.442Z,7.90
2023-01-01T09:26:48.537Z,7.90
2023-01-01T09:27:58.222Z,7.90
2023-01-01T09:29:01.199Z,7.90
2023-01-01T09:30:04.604Z,7.90
2023-01-01T09:31:07.665Z,7.90
2023-01-01T09:32:10.650Z,7.90
2023-01-01T09:33:12.578Z,8.00
2023-01-01T09:34:16.302Z,8.00
2023-01-01T09:35:20.680Z,8.00
2023-01-01T09:36:29.768Z,8.00
2023-01-01T09:37:32.734Z,8.10
2023-01-01T09:38:35.695Z,8.10
2023-01-01T09:39:38.641Z,8.20
2023-01-01T09:40:53.447Z,8.20
2023-01-01T09:42:06.242Z,8.30
2023-01-01T09:43:18.897Z,8.20
2023-01-01T09:44:33.555Z,8.30
2023-01-01T09:45:44.222Z,8.30
2023-01-01T09:46:46.211Z,8.30
2023-01-01T09:47:53.401Z,8.30
2023-01-01T09:48:59.667Z,8.40
2023-01-01T09:50:06.691Z,8.40
2023-01-01T09:51:16.837Z,8.40
2023-01-01T09:52:20.161Z,8.40
2023-01-01T09:53:32.586Z,8.60
2023-01-01T09:54:38.115Z,8.40
2023-01-01T09:55:46.994Z,8.50
2023-01-01T09:56:56.080Z,8.50
2023-01-01T09:57:59.135Z,8.60
2023-01-01T09:59:01.237Z,8.60
2023-01-01T10:00:04.746Z,8.60
2023-01-01T10:01:18.258Z,8.60
2023-01-01T10:02:37.833Z,8.70
2023-01-01T10:03:47.274Z,8.70
2023-01-01T10:05:02.355Z,8.80
2023-01-01T10:06:21.544Z,8.80
2023-01-01T10:07:29.159Z,8.80
2023-01-01T10:08:41.512Z,8.80
2023-01-01T10:09:51.796Z,8.80
2023-01-01T10:11:06.029Z,8.90
2023-01-01T10:12:18.168Z,8.90
2023-01-01T10:13:28.027Z,8.90
2023-01-01T10:14:35.262Z,9.00
2023-01-01T10:15:42.205Z,8.90
2023-01-01T10:16:48.937Z,8.90
2023-01-01T10:17:55.345Z,9.00
2023-01-01T10:19:03.023Z,9.00
2023-01-01T10:20:16.336Z,9.00
2023-01-01T10:21:25.315Z,9.00
2023-01-01T10:22:33.319Z,9.00
2023-01-01T10:23:44.425Z,9.00
2023-01-01T10:24:51.525Z,9.10
2023-01-01T10:25:55.464Z,9.10
2023-01-01T10:27:00.056Z,9.10
2023-01-01T10:28:07.768Z,9.10
2023-01-01T10:29:15.617Z,9.20
2023-01-01T10:30:21.474Z,9.20
2023-01-01T10:31:31.382Z,9.40
2023-01-01T10:32:39.087Z,9.20
2023-01-01T10:33:41.386Z,9.30
2023-01-01T10:34:44.319Z,9.40
2023-01-01T10:35:50.982Z,9.40
2023-01-01T10:36:56.674Z,9.40
2023-01-01T10:38:01.197Z,9.40
2023-01-01T10:39:04.330Z,9.50
2023-01-01T10:40:15.460Z,9.50
2023-01-01T10:41:20.203Z,9.50
2023-01-01T10:42:23.390Z,9.60
2023-01-01T10:43:25.314Z,9.50
2023-01-01T10:44:31.314Z,9.50
2023-01-01T10:45:36.386Z,9.50
2023-01-01T10:46:44.199Z,9.70
2023-01-01T10:48:14.065Z,9.70
2023-01-01T10:49:16.983Z,9.60
2023-01-01T10:50:19.918Z,9.60
2023-01-01T10:51:24.863Z,9.60
2023-01-01T10:52:31.999Z,9.60
2023-01-01T10:53:38.647Z,9.60
2023-01-01T10:54:41.599Z,9.70
2023-01-01T10:55:49.094Z,9.60
2023-01-01T10:56:52.083Z,9.60
2023-01-01T10:57:55.072Z,9.70
2023-01-01T10:58:59.237Z,9.70
2023-01-01T11:00:16.997Z,9.70
2023-01-01T11:01:24.646Z,9.60
2023-01-01T11:02:28.669Z,9.60
2023-01-01T11:03:31.767Z,9.60
2023-01-01T11:04:34.748Z,9.60
2023-01-01T11:05:36.899Z,9.80
2023-01-01T11:06:41.864Z,9.60
2023-01-01T11:07:45.571Z,9.70
2023-01-01T11:08:50.985Z,9.60
2023-01-01T11:10:04.781Z,9.70
2023-01-01T11:11:07.842Z,9.70
2023-01-01T11:12:54.668Z,9.70
2023-01-01T11:13:48.616Z,9.70
2023-01-01T11:14:53.733Z,9.90
2023-01-01T11:15:56.502Z,9.80
2023-01-01T11:17:00.278Z,9.80
2023-01-01T11:18:07.897Z,9.80
2023-01-01T11:19:28.777Z,9.90
2023-01-01T11:20:31.410Z,9.80
2023-01-01T11:21:35.885Z,9.80
2023-01-01T11:22:41.132Z,9.80
2023-01-01T11:23:45.529Z,9.90
2023-01-01T11:25:00.714Z,9.80
2023-01-01T11:26:07.405Z,9.90
2023-01-01T11:27:19.579Z,9.90
2023-01-01T11:28:23.003Z,9.90
2023-01-01T11:29:28.700Z,9.90
2023-01-01T11:30:30.803Z,10.00
2023-01-01T11:31:37.857Z,10.00
2023-01-01T11:32:41.122Z,9.80
2023-01-01T11:33:50.131Z,9.90
2023-01-01T11:34:59.325Z,10.00
2023-01-01T11:36:02.760Z,9.90
2023-01-01T11:37:19.701Z,10.00
2023-01-01T11:38:29.935Z,10.00
2023-01-01T11:39:37.269Z,10.00
2023-01-01T11:40:46.781Z,9.90
2023-01-01T11:41:51.823Z,9.90
2023-01-01T11:42:58.707Z,9.90
2023-01-01T11:44:01.154Z,10.00
2023-01-01T11:45:08.195Z,10.00
2023-01-01T11:46:16.049Z,10.00
2023-01-01T11:47:25.801Z,10.00
2023-01-01T11:48:31.357Z,10.00
2023-01-01T11:49:34.527Z,10.00
2023-01-01T11:50:40.498Z,10.10
2023-01-01T11:51:42.649Z,10.00
2023-01-01T11:52:48.059Z,10.00
2023-01-01T11:53:50.991Z,10.00
2023-01-01T11:55:03.699Z,10.10
2023-01-01T11:56:13.812Z,10.10
2023-01-01T11:57:27.079Z,10.10
2023-01-01T11:58:35.089Z,10.10
2023-01-01T11:59:46.777Z,10.10
2023-01-01T12:00:53.986Z,10.10
2023-01-01T12:01:58.753Z,10.00
2023-01-01T12:03:07.510Z,10.20
2023-01-01T12:04:18.789Z,10.10
2023-01-01T12:05:24.514Z,10.10
2023-01-01T12:06:33.131Z,10.00
2023-01-01T12:07:37.873Z,10.00
2023-01-01T12:08:48.165Z,10.10
2023-01-01T12:09:56.008Z,10.10
2023-01-01T12:11:04.686Z,10.10
2023-01-01T12:12:11.394Z,10.20
2023-01-01T12:13:19.411Z,10.10
2023-01-01T12:14:32.766Z,10.20
2023-01-01T12:15:40.872Z,10.20
2023-01-01T12:16:53.877Z,10.20
2023-01-01T12:18:02.370Z,10.20
2023-01-01T12:19:12.650Z,10.20
2023-01-01T12:20:21.991Z,10.20
2023-01-01T12:21:27.294Z,10.20
2023-01-01T12:22:30.297Z,10.20
2023-01-01T12:23:33.335Z,10.20
2023-01-01T12:24:37.698Z,10.20
2023-01-01T12:25:44.937Z,10.20
2023-01-01T12:27:10.323Z,10.20
2023-01-01T12:28:24.789Z,10.20
2023-01-01T12:29:53.625Z,10.20
2023-01-01T12:31:02.937Z,10.30
2023-01-01T12:32:12.544Z,10.30
2023-01-01T12:33:35.759Z,10.40
2023-01-01T12:34:49.484Z,10.30
2023-01-01T12:36:01.250Z,10.30
2023-01-01T12:37:11.797Z,10.30
2023-01-01T12:38:30.188Z,10.30
2023-01-01T12:40:24.521Z,10.30
2023-01-01T12:41:37.304Z,10.30
2023-01-01T12:42:53.186Z,10.40
2023-01-01T12:44:08.822Z,10.30
2023-01-01T12:45:41.982Z,10.30
2023-01-01T12:46:51.756Z,10.40
2023-01-01T12:48:03.817Z,10.40
2023-01-01T12:49:31.152Z,10.40
2023-01-01T12:50:45.688Z,10.40
2023-01-01T12:52:03.747Z,10.40
2023-01-01T12:53:17.534Z,10.40
2023-01-01T12:54:44.963Z,10.40
2023-01-01T12:56:08.719Z,10.40
2023-01-01T12:57:21.880Z,10.40
2023-01-01T12:58:30.486Z,10.50
2023-01-01T12:59:36.417Z,10.50
2023-01-01T13:00:40.975Z,10.50
2023-01-01T13:01:43.912Z,10.50
2023-01-01T13:02:51.951Z,10.50
2023-01-01T13:03:59.169Z,10.50
2023-01-01T13:05:05.659Z,10.50
2023-01-01T13:06:13.849Z,10.60
2023-01-01T13:07:27.232Z,10.50
2023-01-01T13:08:29.171Z,10.50
2023-01-01T13:09:36.276Z,10.50
2023-01-01T13:10:41.492Z,10.50
2023-01-01T13:11:46.485Z,10.50
2023-01-01T13:12:51.344Z,10.50
2023-01-01T13:13:54.518Z,10.50
2023-01-01T13:14:56.484Z,10.50
2023-01-01T13:15:59.860Z,10.60
2023-01-01T13:17:02.881Z,10.50
2023-01-01T13:18:07.888Z,10.50
2023-01-01T13:19:27.175Z,10.50
2023-01-01T13:20:30.200Z,10.50
2023-01-01T13:21:33.618Z,10.60
2023-01-01T13:22:43.193Z,10.60
2023-01-01T13:23:59.112Z,10.60
2023-01-01T13:25:07.683Z,10.50
2023-01-01T13:26:36.333Z,10.60
2023-01-01T13:28:14.056Z,10.60
2023-01-01T13:29:51.266Z,10.60
2023-01-01T13:30:53.228Z,10.60
2023-01-01T13:32:12.779Z,10.60
2023-01-01T13:33:26.578Z,10.70
2023-01-01T13:35:00.062Z,10.60
2023-01-01T13:36:31.541Z,10.60
2023-01-01T13:37:43.791Z,10.50
2023-01-01T13:38:47.522Z,10.50
2023-01-01T13:39:54.197Z,10.70
2023-01-01T13:40:57.197Z,10.60
2023-01-01T13:41:59.181Z,10.60
2023-01-01T13:43:31.724Z,10.70
2023-01-01T13:44:33.728Z,10.60
2023-01-01T13:47:21.933Z,10.60
2023-01-01T13:48:48.083Z,10.60
2023-01-01T13:50:05.912Z,10.60
2023-01-01T13:52:03.620Z,10.60
2023-01-01T13:53:11.660Z,10.60
2023-01-01T13:54:54.380Z,10.60
2023-01-01T13:56:07.038Z,10.60
2023-01-01T13:57:33.023Z,10.60
2023-01-01T13:59:17.627Z,10.60
2023-01-01T14:00:23.040Z,10.60
2023-01-01T14:01:42.834Z,10.60
2023-01-01T14:02:49.617Z,10.70
2023-01-01T14:03:54.290Z,10.60
2023-01-01T14:05:00.645Z,10.60
2023-01-01T14:06:09.993Z,10.60
2023-01-01T14:07:49.739Z,10.60
2023-01-01T14:08:44.017Z,10.60
2023-01-01T14:09:46.965Z,10.60
2023-01-01T14:10:51.253Z,10.60
2023-01-01T14:11:54.211Z,10.70
2023-01-01T14:13:16.023Z,10.70
2023-01-01T14:14:28.269Z,10.60
2023-01-01T14:15:34.604Z,10.60
2023-01-01T14:16:37.615Z,10.60
2023-01-01T14:17:42.047Z,10.60
2023-01-01T14:18:47.913Z,10.60
2023-01-01T14:19:50.677Z,10.60
2023-01-01T14:20:55.075Z,10.70
2023-01-01T14:21:58.682Z,10.60
2023-01-01T14:23:07.281Z,10.60
2023-01-01T14:24:11.990Z,10.70
2023-01-01T14:25:16.629Z,10.60
2023-01-01T14:26:21.724Z,10.60
2023-01-01T14:27:23.943Z,10.60
2023-01-01T14:28:28.608Z,10.60
2023-01-01T14:29:33.821Z,10.60
2023-01-01T14:30:38.301Z,10.60
2023-01-01T14:31:44.689Z,10.60
2023-01-01T14:32:55.126Z,10.50
2023-01-01T14:33:58.184Z,10.60
2023-01-01T14:35:06.412Z,10.50
2023-01-01T14:36:18.075Z,10.60
2023-01-01T14:37:23.700Z,10.50
2023-01-01T14:38:28.368Z,10.50
2023-01-01T14:39:33.194Z,10.50
2023-01-01T14:40:36.389Z,10.50
2023-01-01T14:41:41.994Z,10.50
2023-01-01T14:42:45.750Z,10.50
2023-01-01T14:43:51.639Z,10.50
2023-01-01T14:44:54.617Z,10.50